Time;durP1;ratioP1;P1;durP2;ratioP2;P2;SDS_P1;SDS_P2;PMS_P1;PMS_P2;Temp;Humidity;BMP_temperature;BMP_pressure;BME280_temperature;BME280_humidity;BME280_pressure;Samples;Min_cycle;Max_cycle;Signal;HPM_P1;HPM_P2
2022/08/11 00:01:25;;;;;;;17.70;16.00;;;;;;;21.89;100.00;100499.30;1764943;80;21103;-93
2022/08/11 00:04:03;;;;;;;17.82;15.75;;;;;;;21.85;100.00;100498.03;1764659;80;20953;-94
2022/08/11 00:06:36;;;;;;;16.65;15.05;;;;;;;21.85;100.00;100510.79;1764764;80;21042;-92
2022/08/11 00:09:11;;;;;;;17.60;16.10;;;;;;;21.84;100.00;100506.98;1764913;81;21498;-95
2022/08/11 00:11:51;;;;;;;17.30;15.55;;;;;;;21.83;100.00;100512.00;1764983;80;21111;-95
2022/08/11 00:14:27;;;;;;;17.42;15.72;;;;;;;21.83;100.00;100510.67;1764769;80;26480;-94
2022/08/11 00:17:02;;;;;;;17.30;15.65;;;;;;;21.82;100.00;100511.16;1764966;80;21008;-94
2022/08/11 00:19:35;;;;;;;16.45;14.98;;;;;;;21.82;100.00;100506.38;1761561;80;21155;-93
2022/08/11 00:22:05;;;;;;;14.70;13.30;;;;;;;21.81;100.00;100511.36;1764860;80;21092;-94
2022/08/11 00:24:36;;;;;;;14.73;13.27;;;;;;;21.80;100.00;100514.50;1764856;80;21805;-94
2022/08/11 00:27:05;;;;;;;14.07;12.68;;;;;;;21.82;100.00;100510.36;1765052;81;21049;-94
2022/08/11 00:29:34;;;;;;;13.83;12.53;;;;;;;21.85;100.00;100513.44;1764954;80;22065;-94
2022/08/11 00:32:04;;;;;;;12.93;11.73;;;;;;;;;;1765167;81;21028;-94
2022/08/11 00:34:35;;;;;;;12.20;11.03;;;;;;;22.02;100.00;100515.80;1764950;80;21040;-95
2022/08/11 00:37:14;;;;;;;12.55;11.48;;;;;;;22.06;100.00;100511.25;1757891;80;21910;-94
2022/08/11 00:39:49;;;;;;;11.78;10.75;;;;;;;22.13;100.00;100515.77;1758151;80;20997;-94
2022/08/11 00:42:37;;;;;;;12.20;11.10;;;;;;;22.28;100.00;100510.33;1761564;80;21594;-94
2022/08/11 00:45:30;;;;;;;11.28;10.38;;;;;;;22.36;100.00;100521.62;1740991;82;21058;-93
2022/08/11 00:48:26;;;;;;;12.03;10.85;;;;;;;22.47;100.00;100516.30;1792624;79;20987;-94
2022/08/11 00:51:18;;;;;;;11.80;10.53;;;;;;;22.59;100.00;100503.28;1800378;79;21150;-92
2022/08/11 00:54:19;;;;;;;11.35;10.40;;;;;;;22.68;100.00;100508.73;1799216;79;21039;-93
2022/08/11 00:57:29;;;;;;;12.60;11.22;;;;;;;22.75;100.00;100506.13;1800312;79;21011;-93
2022/08/11 01:00:13;;;;;;;12.37;10.78;;;;;;;22.82;100.00;100501.66;1799943;79;20963;-94
2022/08/11 01:03:19;;;;;;;11.57;10.43;;;;;;;22.90;100.00;100505.95;1798005;79;20967;-93
2022/08/11 01:06:27;;;;;;;12.58;11.38;;;;;;;22.96;100.00;100501.16;1800111;79;21165;-93
2022/08/11 01:09:15;;;;;;;12.93;11.38;;;;;;;23.02;100.00;100493.44;1800193;79;21469;-94
2022/08/11 01:12:25;;;;;;;14.45;11.53;;;;;;;23.06;100.00;100498.63;1795791;79;21039;-93
2022/08/11 01:15:28;;;;;;;13.90;11.88;;;;;;;23.09;100.00;100495.59;1800144;79;21117;-94
2022/08/11 01:18:37;;;;;;;12.93;11.70;;;;;;;23.17;100.00;100494.08;1800159;79;21066;-93
2022/08/11 01:21:36;;;;;;;12.63;11.35;;;;;;;23.22;100.00;100490.32;1800144;79;21109;-94
2022/08/11 01:24:24;;;;;;;13.98;12.58;;;;;;;23.28;100.00;100489.50;1796432;79;20936;-93
2022/08/11 01:27:47;;;;;;;14.18;11.43;;;;;;;23.31;100.00;100486.98;1631541;79;20994;-93
2022/08/11 01:30:54;;;;;;;13.65;11.08;;;;;;;23.35;100.00;100486.06;1800027;79;20992;-94
2022/08/11 01:34:06;;;;;;;13.43;12.13;;;;;;;23.38;100.00;100484.31;1774745;79;20942;-93
2022/08/11 01:37:07;;;;;;;13.30;11.90;;;;;;;23.41;100.00;100482.59;1785114;79;21547;-93
2022/08/11 01:40:10;;;;;;;13.10;11.60;;;;;;;23.42;100.00;100482.90;1782263;79;21460;-92
2022/08/11 01:46:18;;;;;;;13.30;11.95;;;;;;;23.36;100.00;100483.19;1764318;80;21021;-93
2022/08/11 01:49:08;;;;;;;13.60;12.28;;;;;;;23.34;100.00;100483.09;1789401;79;21004;-92
2022/08/11 01:52:20;;;;;;;12.30;11.20;;;;;;;23.30;100.00;100480.03;1766366;80;21973;-92
2022/08/11 01:55:13;;;;;;;13.13;12.03;;;;;;;23.25;100.00;100479.30;1752902;80;21026;-92
2022/08/11 01:57:51;;;;;;;13.70;12.30;;;;;;;23.22;100.00;100482.35;1751161;81;21010;-92
2022/08/11 02:00:24;;;;;;;14.07;12.70;;;;;;;23.19;100.00;100486.77;1782165;79;20983;-92
2022/08/11 02:03:08;;;;;;;13.60;12.10;;;;;;;23.16;100.00;100488.45;1759878;80;21552;-92
2022/08/11 02:05:59;;;;;;;13.50;12.20;;;;;;;23.11;100.00;100487.72;1789422;79;21832;-93
2022/08/11 02:08:46;;;;;;;13.85;12.55;;;;;;;23.08;100.00;100488.64;1762151;80;21039;-93
2022/08/11 02:11:30;;;;;;;13.93;12.28;;;;;;;23.05;100.00;100489.86;1763987;80;21008;-91
2022/08/11 02:14:19;;;;;;;14.53;12.80;;;;;;;23.02;100.00;100492.10;1760291;79;21034;-93
2022/08/11 02:17:13;;;;;;;14.53;12.55;;;;;;;22.97;100.00;100500.14;1772141;79;21489;-93
2022/08/11 02:23:38;;;;;;;16.05;13.70;;;;;;;22.89;100.00;100508.29;1771050;79;21013;-93
2022/08/11 02:26:10;;;;;;;14.30;13.10;;;;;;;22.82;100.00;100516.25;1769111;81;21530;-92
2022/08/11 02:29:15;;;;;;;14.68;13.25;;;;;;;22.75;100.00;100518.06;1770042;79;21020;-93
2022/08/11 02:35:07;;;;;;;12.98;11.75;;;;;;;22.60;100.00;100527.97;1770930;79;21136;-92
2022/08/11 02:37:59;;;;;;;14.80;13.30;;;;;;;22.52;100.00;100531.10;1769037;79;20997;-93
2022/08/11 02:42:21;;;;;;;16.07;12.73;;;;;;;22.47;100.00;100526.09;1739145;81;21035;-92
2022/08/11 02:43:51;;;;;;;14.75;13.30;;;;;;;22.40;100.00;100525.22;1703156;81;21613;-92
2022/08/11 02:46:27;;;;;;;13.90;12.65;;;;;;;22.31;100.00;100526.67;1757231;81;21465;-93
2022/08/11 02:52:07;;;;;;;14.23;12.70;;;;;;;22.18;100.00;100522.63;1762293;80;21529;-92
2022/08/11 02:55:13;;;;;;;14.58;13.38;;;;;;;22.12;100.00;100522.08;1759424;80;21110;-92
2022/08/11 02:58:11;;;;;;;14.28;13.08;;;;;;;22.09;100.00;100527.27;1762599;80;21555;-92
2022/08/11 03:00:58;;;;;;;14.78;13.25;;;;;;;22.08;100.00;100531.42;1762407;80;21508;-92
2022/08/11 03:03:32;;;;;;;14.60;13.13;;;;;;;22.06;100.00;100528.97;1758834;80;21317;-92
2022/08/11 03:06:33;;;;;;;15.93;14.10;;;;;;;22.05;100.00;100532.14;1756051;81;20932;-92
2022/08/11 03:09:09;;;;;;;15.40;13.83;;;;;;;22.09;100.00;100533.06;1762467;81;21027;-93
2022/08/11 03:18:23;;;;;;;14.70;13.13;;;;;;;22.14;100.00;100524.04;1768440;80;21114;-91
2022/08/11 03:21:07;;;;;;;15.60;14.05;;;;;;;22.15;100.00;100534.44;1775860;80;20943;-91
2022/08/11 03:24:00;;;;;;;16.50;14.75;;;;;;;22.15;100.00;100549.02;1754375;81;21062;-91
2022/08/11 03:26:59;;;;;;;17.42;15.65;;;;;;;22.14;100.00;100557.98;1759174;81;21562;-92
2022/08/11 03:29:43;;;;;;;15.65;14.28;;;;;;;22.12;100.00;100566.63;1740135;82;21054;-93
2022/08/11 03:32:22;;;;;;;17.05;15.35;;;;;;;22.08;100.00;100558.77;1734642;82;21194;-93
2022/08/11 03:34:52;;;;;;;16.85;15.10;;;;;;;22.03;100.00;100564.64;1739375;82;21057;-93
2022/08/11 03:37:52;;;;;;;16.70;15.15;;;;;;;22.00;100.00;100571.64;1740106;82;21599;-92
2022/08/11 03:43:42;;;;;;;15.70;13.38;;;;;;;21.87;100.00;100559.62;1740378;82;21555;-92
2022/08/11 03:46:14;;;;;;;19.35;12.90;;;;;;;21.81;100.00;100562.52;1740178;82;21163;-92
2022/08/11 03:49:07;;;;;;;16.12;14.03;;;;;;;21.78;100.00;100553.65;1753442;81;20939;-92
2022/08/11 03:51:49;;;;;;;19.70;13.58;;;;;;;21.78;100.00;100556.30;1723286;82;21065;-92
2022/08/11 03:54:27;;;;;;;16.27;14.75;;;;;;;21.80;100.00;100552.93;1698344;83;21038;-92
2022/08/11 03:57:41;;;;;;;15.15;13.43;;;;;;;21.83;100.00;100545.13;1728519;82;21041;-92
2022/08/11 04:00:53;;;;;;;15.18;13.78;;;;;;;21.86;100.00;100553.52;1731805;82;21136;-94
2022/08/11 04:04:08;;;;;;;16.50;14.80;;;;;;;21.92;100.00;100570.97;1731692;82;40555;-94
2022/08/11 04:07:01;;;;;;;16.95;14.83;;;;;;;22.00;100.00;100574.30;1750192;81;21542;-95
2022/08/11 04:10:03;;;;;;;19.42;16.05;;;;;;;22.08;100.00;100581.80;1768328;80;21026;-95
2022/08/11 04:12:58;;;;;;;17.20;15.38;;;;;;;22.15;100.00;100595.95;1767560;79;21027;-93
2022/08/11 04:16:03;;;;;;;16.93;15.13;;;;;;;22.24;100.00;100584.16;1761375;81;21162;-95
2022/08/11 04:19:13;;;;;;;15.80;14.25;;;;;;;22.35;100.00;100577.52;1766888;81;21072;-95
2022/08/11 04:22:00;;;;;;;16.95;14.85;;;;;;;22.48;100.00;100579.44;1787669;79;21512;-94
2022/08/11 04:24:43;;;;;;;16.93;15.32;;;;;;;22.60;100.00;100568.61;1807228;78;21521;-94
2022/08/11 04:27:54;;;;;;;21.02;15.93;;;;;;;22.72;100.00;100566.71;1806664;79;21555;-95
2022/08/11 04:30:45;;;;;;;19.10;16.35;;;;;;;22.84;100.00;100570.45;1808079;79;21489;-95
2022/08/11 04:33:40;;;;;;;18.45;16.55;;;;;;;22.94;100.00;100573.57;1807838;79;21607;-96
2022/08/11 04:39:52;;;;;;;17.83;16.00;;;;;;;23.09;100.00;100581.37;1799071;78;21034;-96
2022/08/11 04:45:53;;;;;;;17.80;16.00;;;;;;;23.20;100.00;100569.37;1802238;79;21188;-95
2022/08/11 05:08:11;;;;;;;19.67;16.20;;;;;;;23.57;100.00;100595.12;1808195;79;21449;-94
2022/08/11 05:11:36;;;;;;;22.55;17.57;;;;;;;23.51;100.00;100587.97;1807844;79;21520;-93
2022/08/11 05:34:56;;;;;;;18.17;16.23;;;;;;;24.64;100.00;100597.42;1810958;79;21018;-93
2022/08/11 05:37:36;;;;;;;20.37;16.40;;;;;;;24.74;100.00;100601.83;1807807;79;21002;-93
2022/08/11 05:57:31;;;;;;;20.00;18.00;;;;;;;24.91;100.00;100602.70;1815073;79;21006;-92
2022/08/11 06:00:09;;;;;;;20.02;17.05;;;;;;;24.84;100.00;100594.23;1811716;79;21174;-93
2022/08/11 06:02:49;;;;;;;23.73;17.67;;;;;;;24.76;100.00;100601.11;1814745;79;21073;-96
2022/08/11 06:05:17;;;;;;;22.27;18.70;;;;;;;24.69;100.00;100593.67;1808682;79;21037;-94
2022/08/11 06:07:49;;;;;;;24.50;19.15;;;;;;;24.62;100.00;100590.98;1812187;79;21069;-94
2022/08/11 06:10:32;;;;;;;22.80;18.95;;;;;;;24.63;100.00;100594.48;1817248;78;21750;-96
2022/08/11 06:13:06;;;;;;;23.92;19.07;;;;;;;24.66;100.00;100592.71;1800669;79;21586;-94
2022/08/11 06:15:46;;;;;;;24.77;19.60;;;;;;;24.73;100.00;100596.20;1816677;79;21014;-95
2022/08/11 06:18:16;;;;;;;23.77;18.65;;;;;;;24.77;100.00;100599.25;1816376;79;21049;-93
2022/08/11 06:20:53;;;;;;;21.70;18.67;;;;;;;24.78;100.00;100604.39;1817045;79;21065;-95
2022/08/11 06:23:24;;;;;;;22.52;20.00;;;;;;;24.77;100.00;100600.09;1826661;78;21024;-93
2022/08/11 06:25:53;;;;;;;20.77;18.12;;;;;;;24.78;100.00;100604.39;1820233;78;21137;-94
2022/08/11 06:28:31;;;;;;;23.90;19.07;;;;;;;24.75;100.00;100599.48;1822891;78;21519;-92
2022/08/11 06:31:04;;;;;;;26.33;19.85;;;;;;;24.73;100.00;100604.19;1818505;78;21011;-95
2022/08/11 06:33:42;;;;;;;22.13;19.77;;;;;;;24.72;100.00;100601.22;1756842;81;21056;-94
2022/08/11 06:36:18;;;;;;;22.15;19.95;;;;;;;24.75;100.00;100602.67;1758022;81;21528;-92
2022/08/11 06:39:30;;;;;;;24.20;20.40;;;;;;;24.80;100.00;100603.64;1818823;78;21857;-92
2022/08/11 06:42:17;;;;;;;24.60;21.00;;;;;;;24.88;100.00;100598.09;1827170;78;20990;-92
2022/08/11 06:45:17;;;;;;;30.12;21.12;;;;;;;25.01;100.00;100601.74;1820031;78;21100;-91
2022/08/11 06:47:46;;;;;;;25.05;21.42;;;;;;;25.11;100.00;100610.61;1828308;78;22016;-90
2022/08/11 06:53:11;;;;;;;24.47;21.87;;;;;;;25.20;100.00;100619.46;1795837;79;21145;-90
2022/08/11 07:01:57;;;;;;;27.87;24.47;;;;;;;25.22;100.00;100639.75;1785029;79;21025;-91
2022/08/11 07:04:43;;;;;;;27.22;23.57;;;;;;;25.20;100.00;100641.30;1736906;81;21072;-93
2022/08/11 07:16:03;;;;;;;32.67;25.20;;;;;;;25.13;100.00;100643.98;1813053;78;21574;-92
2022/08/11 07:29:57;;;;;;;;;;;;;;;25.24;100.00;100649.69;1772998;79;21027;-91
2022/08/11 07:32:35;;;;;;;26.82;23.10;;;;;;;25.25;100.00;100653.99;1737124;82;20503;-91
2022/08/11 07:35:13;;;;;;;26.50;22.85;;;;;;;25.25;100.00;100663.31;1766530;81;21496;-91
2022/08/11 07:37:47;;;;;;;26.33;22.80;;;;;;;25.23;100.00;100659.55;1772361;79;21030;-91
2022/08/11 07:40:24;;;;;;;25.77;22.60;;;;;;;25.16;100.00;100657.39;1751065;81;21085;-91
2022/08/11 07:42:54;;;;;;;28.67;22.50;;;;;;;25.12;100.00;100654.86;1771990;80;21109;-92
2022/08/11 07:53:50;;;;;;;27.02;23.67;;;;;;;24.88;100.00;100664.66;1770339;79;20998;-92
2022/08/11 07:56:18;;;;;;;25.77;22.70;;;;;;;24.80;100.00;100661.42;1773035;79;21531;-91
2022/08/11 08:18:15;;;;;;;31.35;23.20;;;;;;;24.52;100.00;100669.94;1772918;79;21948;-91
2022/08/11 08:20:46;;;;;;;26.57;22.77;;;;;;;24.58;100.00;100670.44;1772768;79;20990;-91
2022/08/11 08:23:15;;;;;;;27.73;23.02;;;;;;;24.67;100.00;100670.25;1771738;80;21026;-92
2022/08/11 08:25:45;;;;;;;28.32;24.20;;;;;;;24.79;100.00;100669.09;1772627;80;21073;-93
2022/08/11 08:28:18;;;;;;;38.33;25.52;;;;;;;24.92;100.00;100663.73;1773822;80;21162;-91
2022/08/11 08:30:55;;;;;;;27.30;24.50;;;;;;;25.08;100.00;100657.13;1768608;80;20986;-92
2022/08/11 08:33:27;;;;;;;27.93;24.35;;;;;;;25.29;100.00;100652.52;1772091;79;21540;-91
2022/08/11 08:36:11;;;;;;;31.30;25.77;;;;;;;25.57;100.00;100648.20;1774311;80;21053;-88
2022/08/11 08:38:48;;;;;;;33.35;24.85;;;;;;;25.89;100.00;100638.86;1772321;80;21618;-88
2022/08/11 08:41:28;;;;;;;29.27;26.07;;;;;;;26.24;100.00;100641.08;1768383;80;21133;-88
2022/08/11 08:44:02;;;;;;;29.72;26.57;;;;;;;26.62;100.00;100637.95;1773730;80;20999;-88
2022/08/11 08:46:38;;;;;;;31.65;26.40;;;;;;;27.08;100.00;100629.14;1776211;79;21062;-87
2022/08/11 08:49:14;;;;;;;31.05;26.23;;;;;;;27.56;100.00;100631.49;1767731;80;21038;-89
2022/08/11 08:51:49;;;;;;;30.65;27.13;;;;;;;28.01;100.00;100629.64;1737507;81;21571;-89
2022/08/11 08:54:20;;;;;;;29.98;26.70;;;;;;;28.27;100.00;100626.26;1754705;80;21742;-88
2022/08/11 08:56:53;;;;;;;29.70;26.52;;;;;;;28.41;100.00;100623.33;1755047;80;21011;-89
2022/08/11 08:59:24;;;;;;;29.32;26.37;;;;;;;28.47;100.00;100622.42;1736001;81;21055;-89
2022/08/11 09:02:04;;;;;;;29.45;26.12;;;;;;;28.46;100.00;100624.80;1763849;80;21060;-90
2022/08/11 09:04:34;;;;;;;33.00;27.35;;;;;;;28.40;97.35;100628.42;1752285;81;25336;-89
2022/08/11 09:07:14;;;;;;;30.95;27.65;;;;;;;28.31;98.06;100630.11;1769765;80;21150;-87
2022/08/11 09:09:48;;;;;;;29.45;26.40;;;;;;;28.25;97.20;100624.87;1768276;81;21027;-92
2022/08/11 09:12:22;;;;;;;31.75;28.00;;;;;;;28.23;100.00;100625.11;1768322;81;21024;-89
2022/08/11 09:15:07;;;;;;;30.65;27.42;;;;;;;28.28;100.00;100627.09;1768132;81;21006;-88
2022/08/11 09:17:44;;;;;;;30.57;27.27;;;;;;;28.32;100.00;100624.22;1764636;81;21048;-89
2022/08/11 09:20:19;;;;;;;32.78;27.82;;;;;;;28.41;98.92;100621.99;1760871;81;21101;-93
2022/08/11 09:28:23;;;;;;;31.75;28.35;;;;;;;28.86;97.57;100622.72;1771651;80;21075;-87
2022/08/11 09:30:53;;;;;;;32.20;28.70;;;;;;;29.02;98.52;100613.64;1777975;80;21594;-89
2022/08/11 09:33:23;;;;;;;42.38;29.02;;;;;;;29.19;100.00;100619.86;1777660;80;21129;-89
2022/08/11 09:35:54;;;;;;;29.95;26.50;;;;;;;29.42;100.00;100610.91;1808765;79;21046;-93
2022/08/11 09:41:13;;;;;;;39.25;29.77;;;;;;;29.76;95.72;100612.83;1785214;79;21022;-90
2022/08/11 09:46:33;;;;;;;31.97;25.77;;;;;;;29.86;81.33;100610.28;1775623;79;21079;-89
2022/08/11 09:49:04;;;;;;;31.17;27.98;;;;;;;29.87;78.20;100611.11;1806481;78;21003;-89
2022/08/11 09:51:32;;;;;;;32.48;29.07;;;;;;;29.90;74.86;100615.45;1782532;79;21575;-90
2022/08/11 09:54:05;;;;;;;34.25;28.02;;;;;;;30.02;80.68;100613.23;1790110;79;21116;-90
2022/08/11 09:59:20;;;;;;;32.28;28.40;;;;;;;30.35;80.26;100598.12;1759976;80;21091;-90
2022/08/11 10:01:59;;;;;;;33.08;27.85;;;;;;;30.48;74.45;100604.49;1773019;80;21038;-90
2022/08/11 10:04:38;;;;;;;31.90;26.80;;;;;;;30.60;69.98;100608.44;1777343;80;21470;-92
2022/08/11 10:07:09;;;;;;;31.27;27.37;;;;;;;30.69;72.15;100614.17;1778324;80;21590;-93
2022/08/11 10:09:40;;;;;;;;;;;;;;;30.78;68.46;100612.67;1779153;79;21037;-90
2022/08/11 10:12:17;;;;;;;44.70;27.82;;;;;;;30.82;66.40;100616.47;1779204;80;21193;-91
2022/08/11 10:18:40;;;;;;;29.95;26.75;;;;;;;30.90;68.35;100625.14;1749434;80;21542;-91
2022/08/11 10:20:10;;;;;;;32.78;29.12;;;;;;;30.98;64.70;100620.67;1756231;81;21029;-90
2022/08/11 10:28:11;;;;;;;29.67;26.68;;;;;;;31.21;68.80;100620.16;1778711;79;21023;-90
2022/08/11 10:36:13;;;;;;;29.77;26.85;;;;;;;31.45;68.15;100616.61;1773528;78;21044;-89
2022/08/11 10:38:44;;;;;;;30.65;26.75;;;;;;;31.51;63.80;100626.88;1767596;80;21145;-90
2022/08/11 10:43:57;;;;;;;29.07;25.88;;;;;;;31.45;62.67;100628.71;1761875;80;20192;-91
2022/08/11 10:49:13;;;;;;;33.10;25.70;;;;;;;31.55;67.31;100618.56;1767682;80;21044;-90
2022/08/11 11:00:06;;;;;;;28.55;24.82;;;;;;;31.63;63.21;100626.17;1773965;78;20973;-89
2022/08/11 11:02:33;;;;;;;;;;;;;;;31.63;64.78;100626.17;1769992;80;21037;-91
2022/08/11 11:05:26;;;;;;;26.48;23.62;;;;;;;31.61;66.56;100629.64;1763327;80;21211;-91
2022/08/11 11:11:02;;;;;;;26.23;23.70;;;;;;;31.54;64.07;100642.50;1770708;80;21002;-91
2022/08/11 11:19:07;;;;;;;25.02;22.67;;;;;;;30.98;65.55;100648.38;1771162;79;21121;-91
2022/08/11 11:21:36;;;;;;;25.77;23.07;;;;;;;30.77;66.27;100651.87;1774491;80;21092;-92
2022/08/11 11:24:15;;;;;;;30.75;24.15;;;;;;;30.57;68.37;100641.16;1728283;79;22169;-93
2022/08/11 11:27:23;;;;;;;26.62;23.90;;;;;;;30.46;70.37;100646.90;1767929;80;21005;-91
2022/08/11 11:30:07;;;;;;;25.65;22.98;;;;;;;30.38;70.74;100648.67;1774671;79;21057;-92
2022/08/11 11:33:06;;;;;;;26.05;22.62;;;;;;;30.33;71.57;100641.34;1802211;79;22002;-92
2022/08/11 11:36:04;;;;;;;31.48;24.50;;;;;;;30.44;73.15;100640.16;1773668;80;21010;-91
2022/08/11 11:38:32;;;;;;;27.02;24.32;;;;;;;30.65;73.45;100647.45;1706092;83;21034;-91
2022/08/11 11:43:47;;;;;;;28.80;24.00;;;;;;;30.88;72.43;100646.11;1753577;79;21084;-93
2022/08/11 11:46:16;;;;;;;26.45;23.30;;;;;;;30.93;73.36;100644.81;1772393;80;21099;-92
2022/08/11 11:48:45;;;;;;;27.13;24.43;;;;;;;30.92;72.45;100645.36;1794714;79;21018;-91
2022/08/11 11:51:14;;;;;;;26.00;23.35;;;;;;;30.94;73.80;100644.55;1769828;80;21006;-91
2022/08/11 11:53:45;;;;;;;27.40;23.40;;;;;;;30.98;74.10;100647.55;1774551;80;21052;-92
2022/08/11 11:56:16;;;;;;;;;;;;;;;30.98;70.61;100654.27;1773641;80;20988;-91
2022/08/11 12:01:32;;;;;;;27.17;24.35;;;;;;;30.97;73.89;100637.34;1765825;80;21972;-91
2022/08/11 12:04:07;;;;;;;29.02;24.50;;;;;;;31.02;76.28;100639.80;1767800;80;21092;-93
2022/08/11 12:06:37;;;;;;;27.30;23.42;;;;;;;30.94;72.46;100635.69;1793361;78;21554;-90
2022/08/11 12:09:10;;;;;;;26.82;23.42;;;;;;;30.77;73.95;100637.92;1795691;78;21705;-91
2022/08/11 12:14:27;;;;;;;25.20;22.30;;;;;;;30.61;78.00;100634.75;1801106;79;21066;-91
2022/08/11 12:16:58;;;;;;;24.77;22.35;;;;;;;30.59;82.33;100640.91;1799755;79;21053;-91
2022/08/11 12:19:28;;;;;;;24.90;22.50;;;;;;;30.65;80.74;100634.52;1798661;78;21040;-90
2022/08/11 12:27:32;;;;;;;29.92;23.20;;;;;;;30.94;78.58;100633.00;1788257;79;20989;-90
2022/08/11 12:30:07;;;;;;;25.72;22.85;;;;;;;30.96;77.35;100621.48;1792114;78;21042;-89
2022/08/11 12:32:38;;;;;;;26.40;23.52;;;;;;;31.03;78.20;100622.61;1810384;79;20991;-90
2022/08/11 12:35:07;;;;;;;27.20;23.30;;;;;;;31.08;75.82;100624.83;1802027;79;21033;-89
2022/08/11 12:37:42;;;;;;;24.98;22.58;;;;;;;31.12;74.36;100631.36;1798429;79;22537;-91
2022/08/11 12:46:03;;;;;;;25.48;22.85;;;;;;;31.17;76.22;100613.64;1800098;78;21496;-90
2022/08/11 12:54:35;;;;;;;26.12;23.32;;;;;;;31.24;73.72;100608.88;1740648;80;21017;-90
2022/08/11 13:05:33;;;;;;;26.48;23.20;;;;;;;30.98;77.81;100601.34;1753491;79;22326;-91
2022/08/11 13:08:05;;;;;;;31.33;21.55;;;;;;;31.00;75.00;100600.56;1757309;80;22054;-92
2022/08/11 13:13:23;;;;;;;23.15;20.75;;;;;;;31.03;70.49;100594.38;1769935;79;20996;-93
2022/08/11 13:15:52;;;;;;;22.15;19.90;;;;;;;31.02;73.16;100598.12;1787091;79;21520;-91
2022/08/11 13:18:24;;;;;;;26.75;23.90;;;;;;;31.05;73.13;100598.43;1778518;79;21505;-90
2022/08/11 13:20:55;;;;;;;27.20;24.52;;;;;;;31.13;75.80;100593.17;1778140;80;21022;-90
2022/08/11 13:23:25;;;;;;;26.52;23.55;;;;;;;31.09;72.85;100589.33;1766427;79;20955;-91
2022/08/11 13:25:54;;;;;;;27.50;24.57;;;;;;;31.02;75.37;100586.86;1787420;79;26881;-90
2022/08/11 13:28:22;;;;;;;29.27;24.27;;;;;;;30.97;78.22;100590.81;1786090;79;21501;-91
2022/08/11 13:31:11;;;;;;;27.62;23.60;;;;;;;30.92;78.30;100583.54;1790110;78;21150;-90
2022/08/11 13:33:45;;;;;;;25.43;22.90;;;;;;;30.85;76.67;100589.62;1779403;79;21003;-91
2022/08/11 13:36:17;;;;;;;28.25;23.25;;;;;;;30.73;77.28;100591.09;1804560;78;21503;-90
2022/08/11 13:38:48;;;;;;;24.87;22.20;;;;;;;30.61;75.48;100592.56;1783559;80;21041;-90
2022/08/11 13:44:07;;;;;;;25.72;23.02;;;;;;;30.41;77.78;100586.37;1785225;80;21134;-89
2022/08/11 13:46:37;;;;;;;28.40;23.52;;;;;;;30.37;78.61;100584.72;1778558;80;21032;-91
2022/08/11 13:49:09;;;;;;;27.37;22.52;;;;;;;30.36;77.89;100589.01;1791615;79;21018;-90
2022/08/11 13:51:38;;;;;;;29.48;24.07;;;;;;;30.37;77.96;100591.98;1766886;80;21120;-90
2022/08/11 13:54:19;;;;;;;25.72;23.02;;;;;;;30.33;77.70;100581.44;1791302;79;21053;-90
2022/08/11 13:56:51;;;;;;;;;;;;;;;30.31;77.97;100580.89;1788639;79;21125;-89
2022/08/11 13:59:20;;;;;;;;;;;;;;;30.32;77.89;100581.19;1793564;79;20172;-90
2022/08/11 14:02:02;;;;;;;26.40;23.60;;;;;;;30.36;78.14;100575.58;1792702;79;20195;-91
2022/08/11 14:04:41;;;;;;;29.65;24.12;;;;;;;30.41;78.98;100572.95;1790096;79;21018;-90
2022/08/11 14:07:11;;;;;;;29.32;23.98;;;;;;;30.48;78.12;100572.27;1784982;79;21028;-89
2022/08/11 14:09:42;;;;;;;26.82;23.73;;;;;;;30.47;77.32;100571.15;1794195;79;21138;-90
2022/08/11 14:15:25;;;;;;;27.20;23.30;;;;;;;30.31;73.61;100577.67;1771734;80;22265;-90
2022/08/11 14:18:05;;;;;;;28.80;24.12;;;;;;;30.28;76.15;100575.50;1772980;79;21011;-91
2022/08/11 14:23:26;;;;;;;;;;;;;;;30.33;74.39;100559.95;1789848;80;21097;-91
2022/08/11 14:28:45;;;;;;;25.72;23.20;;;;;;;30.30;74.80;100565.84;1770827;80;21077;-90
2022/08/11 14:31:15;;;;;;;;;;;;;;;30.22;74.74;100557.67;1780608;79;21441;-90
2022/08/11 14:33:47;;;;;;;30.50;22.90;;;;;;;30.07;74.16;100556.95;1777698;79;20521;-89
2022/08/11 14:36:15;;;;;;;27.45;24.55;;;;;;;29.90;74.89;100559.10;1790533;79;21130;-90
2022/08/11 14:38:44;;;;;;;27.37;24.35;;;;;;;29.75;74.46;100552.17;1799850;79;21635;-90
2022/08/11 14:47:05;;;;;;;28.70;23.30;;;;;;;29.48;77.08;100546.66;1786177;79;21481;-90
2022/08/11 14:49:36;;;;;;;26.57;23.55;;;;;;;29.43;76.46;100542.02;1763225;79;21083;-92
2022/08/11 14:52:09;;;;;;;25.85;22.62;;;;;;;29.39;75.99;100536.84;1779750;80;20998;-90
2022/08/11 14:57:27;;;;;;;26.33;21.97;;;;;;;29.30;78.00;100530.22;1762296;80;21114;-91
2022/08/11 15:00:00;;;;;;;24.05;21.45;;;;;;;29.23;77.70;100526.38;1777528;80;21558;-90
2022/08/11 15:05:15;;;;;;;24.50;21.93;;;;;;;29.11;79.02;100523.76;1774425;80;21036;-89
2022/08/11 15:07:43;;;;;;;24.65;22.13;;;;;;;29.03;80.16;100522.27;1789893;79;21588;-89
2022/08/11 15:10:11;;;;;;;23.90;21.52;;;;;;;28.96;80.96;100519.73;1777072;80;21042;-90
2022/08/11 15:12:41;;;;;;;28.23;23.32;;;;;;;28.91;81.87;100516.97;1779048;80;21059;-91
2022/08/11 15:18:03;;;;;;;24.63;21.87;;;;;;;28.84;82.79;100513.62;1791911;79;21017;-88
2022/08/11 15:26:16;;;;;;;23.70;21.33;;;;;;;28.85;85.61;100515.25;1782810;80;20948;-89
2022/08/11 15:46:09;;;;;;;27.02;22.22;;;;;;;28.83;84.13;100516.02;1768676;80;21000;-89
2022/08/11 15:49:04;;;;;;;23.30;20.82;;;;;;;28.79;84.49;100516.22;1766755;81;20997;-90
2022/08/11 15:51:51;;;;;;;23.27;20.88;;;;;;;28.76;86.56;100519.36;1746245;81;21029;-90
2022/08/11 15:54:26;;;;;;;23.12;20.82;;;;;;;28.72;85.60;100521.71;1729175;81;21491;-89
2022/08/11 15:56:57;;;;;;;23.15;20.85;;;;;;;28.64;85.28;100521.52;1746628;81;21297;-89
2022/08/11 16:05:12;;;;;;;22.65;20.40;;;;;;;28.45;86.70;100538.28;1752588;81;21964;-89
2022/08/11 16:07:48;;;;;;;25.68;20.90;;;;;;;28.37;85.34;100538.65;1760089;79;21507;-89
2022/08/11 16:10:20;;;;;;;24.70;19.42;;;;;;;28.31;86.25;100543.11;1776435;80;21250;-89
2022/08/11 16:18:50;;;;;;;21.00;18.90;;;;;;;28.14;86.60;100543.53;1780385;79;21020;-90
2022/08/11 16:21:25;;;;;;;23.32;18.27;;;;;;;28.07;86.35;100542.84;1747439;79;21008;-89
2022/08/11 16:23:57;;;;;;;20.32;18.52;;;;;;;28.00;86.55;100541.05;1779587;79;21116;-89
2022/08/11 16:26:29;;;;;;;21.05;18.42;;;;;;;27.97;86.92;100535.35;1785456;79;21052;-89
2022/08/11 16:29:00;;;;;;;20.45;18.30;;;;;;;27.92;86.61;100541.94;1787081;79;21010;-88
2022/08/11 16:31:30;;;;;;;24.30;18.92;;;;;;;27.87;87.49;100542.63;1789221;79;20982;-90
2022/08/11 16:34:01;;;;;;;21.45;18.52;;;;;;;27.84;87.84;100544.45;1791942;79;21008;-89
2022/08/11 16:39:17;;;;;;;21.10;18.25;;;;;;;27.77;89.81;100551.24;1795024;79;21024;-89
2022/08/11 16:47:22;;;;;;;21.30;19.05;;;;;;;27.64;92.24;100564.84;1792819;79;21006;-91
2022/08/11 16:49:54;;;;;;;21.75;18.82;;;;;;;27.60;94.06;100559.11;1788778;79;21004;-89
2022/08/11 16:52:23;;;;;;;20.05;18.05;;;;;;;27.54;95.34;100564.05;1799513;78;21034;-89
2022/08/11 16:54:51;;;;;;;20.02;17.98;;;;;;;27.50;96.28;100563.70;1797466;79;21022;-90
2022/08/11 17:00:14;;;;;;;20.35;18.15;;;;;;;27.42;98.84;100573.38;1768918;80;21050;-89
2022/08/11 17:14:39;;;;;;;22.73;18.17;;;;;;;27.19;100.00;100579.45;1811737;78;21073;-89
2022/08/11 17:17:11;;;;;;;19.17;16.65;;;;;;;27.15;100.00;100583.61;1778444;79;21778;-88